»·PEaware :: DAL10 KPHX-KLAX

DAL10 :: KPHX-KLAX

FLIGHT INFORMATION

Flight Status: Arrived
Operator:
Delta Air Lines
More flights by this operator :: More flights under this callsign
Pilot: Jordan S. (14404)
Aircraft: Unknown
(B788)
More flights by this aircraft type
Origin: KPHX Phoenix Sky Harbor Intl
United States
Destination: KLAX Los Angeles Intl
United States
More flights between these airports :: More routes between these airports
Route: +KEENS1 MESSI ESTWD HLYWD1
File this flight plan on PilotEdge
Remarks:
Altitude:
(Current/Filed)
30,000ft
Speed:
(Current/Filed)
600kts
Departed: 04-May-18 09:51 PM
Arrived: 04-May-18 10:42 PM
Distance/Time
Traveled:
321nm/0:51
Distance/Time
To Go:
Arrived

Flight Plot

Page will automatically refresh every two minutes.

Flight plan parsing failed; only flown route is shown


Map Options




Map Legend


Flown Route
Filed Route
Departure Airport
Arrival Airport
Navaid (VOR, NDB)
Fix

Horizontal Profiles

Position Reports

Time Latitude Longitude Heading Altitude Ground
Speed
04-May-18 21:34 33.437370 -112.008181 270 1146ft 0kts
04-May-18 21:35 33.437370 -112.008181 270 1146ft 0kts
04-May-18 21:36 33.437370 -112.008181 270 1146ft 0kts
04-May-18 21:37 33.437370 -112.008181 270 1146ft 0kts
04-May-18 21:38 33.437370 -112.008181 270 1146ft 0kts
04-May-18 21:39 33.437370 -112.008181 270 1146ft 0kts
04-May-18 21:40 33.437370 -112.008181 270 1146ft 0kts
04-May-18 21:41 33.437370 -112.008181 270 1146ft 0kts
04-May-18 21:42 33.437370 -112.008181 270 1146ft 0kts
04-May-18 21:43 33.437370 -112.008181 270 1146ft 0kts
04-May-18 21:43 33.437369 -112.007901 270 1146ft 4kts
04-May-18 21:44 33.438087 -112.007363 4 1146ft 0kts
04-May-18 21:45 33.439049 -112.006448 86 1146ft 12kts
04-May-18 21:46 33.438982 -112.001856 90 1146ft 1kts
04-May-18 21:47 33.439492 -111.995385 66 1146ft 22kts
04-May-18 21:48 33.439860 -111.992567 56 1146ft 3kts
04-May-18 21:49 33.440821 -111.993164 269 1146ft 0kts
04-May-18 21:50 33.440864 -112.024759 269 1231ft 231kts
04-May-18 21:51 33.441179 -112.100250 270 2953ft 233kts
04-May-18 21:52 33.406601 -112.171651 237 5013ft 273kts
04-May-18 21:53 33.399347 -112.258635 279 6196ft 284kts
04-May-18 21:54 33.413663 -112.353109 279 8677ft 296kts
04-May-18 21:55 33.428159 -112.451391 281 11303ft 307kts
04-May-18 21:56 33.443191 -112.553548 281 13911ft 320kts
04-May-18 21:57 33.450949 -112.669830 271 16642ft 387kts
04-May-18 21:58 33.456463 -112.806152 288 19287ft 434kts
04-May-18 21:59 33.503100 -112.945324 293 21968ft 468kts
04-May-18 22:00 33.556278 -113.091375 293 24610ft 490kts
04-May-18 22:01 33.598870 -113.248493 297 27180ft 502kts
04-May-18 22:02 33.661024 -113.398481 294 29752ft 504kts
04-May-18 22:03 33.714909 -113.554864 293 30106ft 509kts
04-May-18 22:04 33.768866 -113.712306 293 30084ft 510kts
04-May-18 22:05 33.822504 -113.869824 293 30084ft 510kts
04-May-18 22:06 33.875986 -114.027260 293 30095ft 510kts
04-May-18 22:07 33.918361 -114.189916 284 30085ft 512kts
04-May-18 22:08 33.946485 -114.357237 282 30075ft 512kts
04-May-18 22:09 33.973559 -114.518324 283 30080ft 512kts
04-May-18 22:10 34.001462 -114.685702 282 30076ft 513kts
04-May-18 22:11 34.029257 -114.854282 282 30071ft 512kts
04-May-18 22:12 34.056853 -115.022629 282 30070ft 513kts
04-May-18 22:13 34.084227 -115.191243 282 30070ft 514kts
04-May-18 22:14 34.111474 -115.359959 282 30170ft 513kts
04-May-18 22:15 34.137599 -115.523918 282 30232ft 477kts
04-May-18 22:16 34.161450 -115.681493 275 28959ft 477kts
04-May-18 22:17 34.148991 -115.840089 265 27446ft 472kts
04-May-18 22:18 34.134225 -115.995576 265 25837ft 464kts
04-May-18 22:19 34.119294 -116.147336 265 24195ft 435kts
04-May-18 22:20 34.105872 -116.282393 265 24198ft 401kts
04-May-18 22:21 34.091654 -116.416710 265 24124ft 403kts
04-May-18 22:22 34.077225 -116.550813 265 24111ft 403kts
04-May-18 22:23 34.064525 -116.681908 265 23763ft 404kts
04-May-18 22:24 34.052106 -116.814691 265 22260ft 393kts
04-May-18 22:25 34.038066 -116.943258 263 20778ft 387kts
04-May-18 22:26 34.022032 -117.070635 263 19242ft 377kts
04-May-18 22:27 34.007592 -117.192030 263 17929ft 364kts
04-May-18 22:28 33.993367 -117.310901 263 16240ft 355kts
04-May-18 22:29 33.979581 -117.428172 262 13985ft 354kts
04-May-18 22:30 33.983308 -117.543892 282 11791ft 341kts
04-May-18 22:31 34.001188 -117.650690 282 10535ft 317kts
04-May-18 22:32 33.999842 -117.750779 264 9593ft 293kts
04-May-18 22:33 33.991311 -117.847952 262 8433ft 290kts
04-May-18 22:34 33.982221 -117.939446 261 6818ft 285kts
04-May-18 22:35 33.973107 -118.031032 261 5243ft 277kts
04-May-18 22:37 33.964205 -118.119868 262 3953ft 260kts
04-May-18 22:38 33.955309 -118.208084 262 3044ft 256kts
04-May-18 22:39 33.946957 -118.290042 262 1711ft 217kts
04-May-18 22:40 33.940506 -118.350079 261 704ft 167kts
04-May-18 22:41 33.935718 -118.398944 263 137ft 82kts
04-May-18 22:42 33.935991 -118.403003 294 137ft 0kts

Navigation Log

Ident Type
Flight plan parsing failed, navigation log unavailable